sensor_id;sensor_type;location;lat;lon;timestamp;P1;durP1;ratioP1;P2;durP2;ratioP2
15952;SDS011;8075;47.766;8.846;2022-11-20T00:01:55;7.85;;;7.15;;
15952;SDS011;8075;47.766;8.846;2022-11-20T00:04:21;8.70;;;7.95;;
15952;SDS011;8075;47.766;8.846;2022-11-20T00:06:47;8.17;;;7.50;;
15952;SDS011;8075;47.766;8.846;2022-11-20T00:09:13;8.65;;;7.95;;
15952;SDS011;8075;47.766;8.846;2022-11-20T00:11:39;9.45;;;8.70;;
15952;SDS011;8075;47.766;8.846;2022-11-20T00:14:05;9.32;;;8.63;;
15952;SDS011;8075;47.766;8.846;2022-11-20T00:16:32;9.27;;;8.55;;
15952;SDS011;8075;47.766;8.846;2022-11-20T00:18:58;9.40;;;8.50;;
15952;SDS011;8075;47.766;8.846;2022-11-20T00:21:25;9.80;;;8.90;;
15952;SDS011;8075;47.766;8.846;2022-11-20T00:23:52;10.48;;;9.52;;
15952;SDS011;8075;47.766;8.846;2022-11-20T00:26:19;10.80;;;9.80;;
15952;SDS011;8075;47.766;8.846;2022-11-20T00:28:52;10.43;;;9.50;;
15952;SDS011;8075;47.766;8.846;2022-11-20T00:31:18;10.45;;;9.45;;
15952;SDS011;8075;47.766;8.846;2022-11-20T00:33:45;10.75;;;9.77;;
15952;SDS011;8075;47.766;8.846;2022-11-20T00:36:12;10.65;;;9.70;;
15952;SDS011;8075;47.766;8.846;2022-11-20T00:38:38;11.40;;;9.18;;
15952;SDS011;8075;47.766;8.846;2022-11-20T00:41:06;10.70;;;9.70;;
15952;SDS011;8075;47.766;8.846;2022-11-20T00:43:32;10.65;;;9.60;;
15952;SDS011;8075;47.766;8.846;2022-11-20T00:45:59;10.05;;;9.13;;
15952;SDS011;8075;47.766;8.846;2022-11-20T00:48:25;10.27;;;9.13;;
15952;SDS011;8075;47.766;8.846;2022-11-20T00:50:51;9.50;;;8.70;;
15952;SDS011;8075;47.766;8.846;2022-11-20T00:53:18;9.38;;;8.57;;
15952;SDS011;8075;47.766;8.846;2022-11-20T00:55:52;9.55;;;8.68;;
15952;SDS011;8075;47.766;8.846;2022-11-20T00:58:18;9.38;;;8.48;;
15952;SDS011;8075;47.766;8.846;2022-11-20T01:00:44;8.95;;;8.23;;
15952;SDS011;8075;47.766;8.846;2022-11-20T01:03:10;8.90;;;8.00;;
15952;SDS011;8075;47.766;8.846;2022-11-20T01:05:36;7.53;;;6.93;;
15952;SDS011;8075;47.766;8.846;2022-11-20T01:08:02;7.43;;;6.53;;
15952;SDS011;8075;47.766;8.846;2022-11-20T01:10:28;6.57;;;5.97;;
15952;SDS011;8075;47.766;8.846;2022-11-20T01:12:54;6.18;;;5.68;;
15952;SDS011;8075;47.766;8.846;2022-11-20T01:15:39;6.10;;;5.60;;
15952;SDS011;8075;47.766;8.846;2022-11-20T01:18:05;6.30;;;5.68;;
15952;SDS011;8075;47.766;8.846;2022-11-20T01:20:34;5.93;;;5.43;;
15952;SDS011;8075;47.766;8.846;2022-11-20T01:23:01;5.53;;;5.13;;
15952;SDS011;8075;47.766;8.846;2022-11-20T01:25:27;5.95;;;5.50;;
15952;SDS011;8075;47.766;8.846;2022-11-20T01:27:53;5.63;;;5.23;;
15952;SDS011;8075;47.766;8.846;2022-11-20T01:30:19;5.55;;;5.13;;
15952;SDS011;8075;47.766;8.846;2022-11-20T01:32:45;5.82;;;5.22;;
15952;SDS011;8075;47.766;8.846;2022-11-20T01:35:11;5.75;;;5.03;;
15952;SDS011;8075;47.766;8.846;2022-11-20T01:37:37;5.72;;;5.22;;
15952;SDS011;8075;47.766;8.846;2022-11-20T01:40:03;5.70;;;5.20;;
15952;SDS011;8075;47.766;8.846;2022-11-20T01:42:29;5.57;;;5.13;;
15952;SDS011;8075;47.766;8.846;2022-11-20T01:48:06;5.85;;;5.35;;
15952;SDS011;8075;47.766;8.846;2022-11-20T01:50:32;5.32;;;4.82;;
15952;SDS011;8075;47.766;8.846;2022-11-20T01:53:00;5.63;;;5.13;;
15952;SDS011;8075;47.766;8.846;2022-11-20T01:55:31;5.80;;;5.30;;
15952;SDS011;8075;47.766;8.846;2022-11-20T01:57:58;5.50;;;5.00;;
15952;SDS011;8075;47.766;8.846;2022-11-20T02:00:24;5.80;;;4.85;;
15952;SDS011;8075;47.766;8.846;2022-11-20T02:02:55;6.38;;;5.25;;
15952;SDS011;8075;47.766;8.846;2022-11-20T02:05:24;5.80;;;5.20;;
15952;SDS011;8075;47.766;8.846;2022-11-20T02:07:52;4.80;;;4.40;;
15952;SDS011;8075;47.766;8.846;2022-11-20T02:10:20;5.13;;;4.70;;
15952;SDS011;8075;47.766;8.846;2022-11-20T02:12:46;5.30;;;4.80;;
15952;SDS011;8075;47.766;8.846;2022-11-20T02:15:32;5.77;;;5.27;;
15952;SDS011;8075;47.766;8.846;2022-11-20T02:17:58;5.53;;;5.03;;
15952;SDS011;8075;47.766;8.846;2022-11-20T02:20:24;6.00;;;5.40;;
15952;SDS011;8075;47.766;8.846;2022-11-20T02:22:53;6.22;;;5.38;;
15952;SDS011;8075;47.766;8.846;2022-11-20T02:25:20;6.35;;;5.82;;
15952;SDS011;8075;47.766;8.846;2022-11-20T02:27:47;6.53;;;5.93;;
15952;SDS011;8075;47.766;8.846;2022-11-20T02:30:13;5.72;;;5.15;;
15952;SDS011;8075;47.766;8.846;2022-11-20T02:32:39;7.60;;;5.60;;
15952;SDS011;8075;47.766;8.846;2022-11-20T02:37:43;5.65;;;5.15;;
15952;SDS011;8075;47.766;8.846;2022-11-20T02:40:10;6.35;;;5.78;;
15952;SDS011;8075;47.766;8.846;2022-11-20T02:42:36;6.18;;;5.65;;
15952;SDS011;8075;47.766;8.846;2022-11-20T02:45:06;6.72;;;6.10;;
15952;SDS011;8075;47.766;8.846;2022-11-20T02:47:32;7.28;;;6.68;;
15952;SDS011;8075;47.766;8.846;2022-11-20T02:49:58;7.25;;;6.55;;
15952;SDS011;8075;47.766;8.846;2022-11-20T02:52:24;7.10;;;6.50;;
15952;SDS011;8075;47.766;8.846;2022-11-20T02:54:50;6.75;;;6.15;;
15952;SDS011;8075;47.766;8.846;2022-11-20T02:57:16;6.05;;;5.55;;
15952;SDS011;8075;47.766;8.846;2022-11-20T02:59:42;5.43;;;4.93;;
15952;SDS011;8075;47.766;8.846;2022-11-20T03:02:08;5.20;;;4.70;;
15952;SDS011;8075;47.766;8.846;2022-11-20T03:04:34;5.07;;;4.60;;
15952;SDS011;8075;47.766;8.846;2022-11-20T03:07:00;5.20;;;4.80;;
15952;SDS011;8075;47.766;8.846;2022-11-20T03:09:26;5.30;;;4.80;;
15952;SDS011;8075;47.766;8.846;2022-11-20T03:11:52;4.10;;;3.80;;
15952;SDS011;8075;47.766;8.846;2022-11-20T03:14:18;4.53;;;4.13;;
15952;SDS011;8075;47.766;8.846;2022-11-20T03:16:44;4.88;;;4.47;;
15952;SDS011;8075;47.766;8.846;2022-11-20T03:19:10;4.50;;;4.10;;
15952;SDS011;8075;47.766;8.846;2022-11-20T03:21:36;3.90;;;3.60;;
15952;SDS011;8075;47.766;8.846;2022-11-20T03:24:02;4.95;;;4.05;;
15952;SDS011;8075;47.766;8.846;2022-11-20T03:26:29;4.57;;;4.18;;
15952;SDS011;8075;47.766;8.846;2022-11-20T03:28:56;4.60;;;4.20;;
15952;SDS011;8075;47.766;8.846;2022-11-20T03:31:23;4.65;;;4.25;;
15952;SDS011;8075;47.766;8.846;2022-11-20T03:33:50;4.50;;;4.03;;
15952;SDS011;8075;47.766;8.846;2022-11-20T03:36:16;4.40;;;4.00;;
15952;SDS011;8075;47.766;8.846;2022-11-20T03:38:43;4.88;;;4.05;;
15952;SDS011;8075;47.766;8.846;2022-11-20T03:41:16;5.55;;;4.13;;
15952;SDS011;8075;47.766;8.846;2022-11-20T03:43:46;4.55;;;4.20;;
15952;SDS011;8075;47.766;8.846;2022-11-20T03:46:12;5.60;;;5.10;;
15952;SDS011;8075;47.766;8.846;2022-11-20T03:48:38;6.32;;;5.80;;
15952;SDS011;8075;47.766;8.846;2022-11-20T03:51:11;7.00;;;6.30;;
15952;SDS011;8075;47.766;8.846;2022-11-20T03:53:38;7.72;;;7.03;;
15952;SDS011;8075;47.766;8.846;2022-11-20T03:56:04;7.18;;;6.57;;
15952;SDS011;8075;47.766;8.846;2022-11-20T03:58:30;6.53;;;5.93;;
15952;SDS011;8075;47.766;8.846;2022-11-20T04:00:56;7.47;;;6.70;;
15952;SDS011;8075;47.766;8.846;2022-11-20T04:03:22;7.40;;;6.70;;
15952;SDS011;8075;47.766;8.846;2022-11-20T04:05:48;7.80;;;7.07;;
15952;SDS011;8075;47.766;8.846;2022-11-20T04:08:14;7.47;;;6.78;;
15952;SDS011;8075;47.766;8.846;2022-11-20T04:10:40;6.80;;;6.20;;
15952;SDS011;8075;47.766;8.846;2022-11-20T04:13:06;6.90;;;6.20;;
15952;SDS011;8075;47.766;8.846;2022-11-20T04:15:32;6.33;;;5.80;;
15952;SDS011;8075;47.766;8.846;2022-11-20T04:17:58;6.45;;;5.93;;
15952;SDS011;8075;47.766;8.846;2022-11-20T04:20:27;6.25;;;5.68;;
15952;SDS011;8075;47.766;8.846;2022-11-20T04:22:53;6.65;;;5.68;;
15952;SDS011;8075;47.766;8.846;2022-11-20T04:25:19;6.28;;;5.82;;
15952;SDS011;8075;47.766;8.846;2022-11-20T04:27:45;6.55;;;5.90;;
15952;SDS011;8075;47.766;8.846;2022-11-20T04:30:11;6.35;;;5.75;;
15952;SDS011;8075;47.766;8.846;2022-11-20T04:32:37;6.03;;;5.53;;
15952;SDS011;8075;47.766;8.846;2022-11-20T04:35:04;6.30;;;5.70;;
15952;SDS011;8075;47.766;8.846;2022-11-20T04:37:30;6.20;;;5.67;;
15952;SDS011;8075;47.766;8.846;2022-11-20T04:39:56;6.00;;;5.40;;
15952;SDS011;8075;47.766;8.846;2022-11-20T04:42:22;6.07;;;5.57;;
15952;SDS011;8075;47.766;8.846;2022-11-20T04:44:54;6.30;;;5.70;;
15952;SDS011;8075;47.766;8.846;2022-11-20T04:47:20;5.82;;;5.32;;
15952;SDS011;8075;47.766;8.846;2022-11-20T04:49:46;5.53;;;5.03;;
15952;SDS011;8075;47.766;8.846;2022-11-20T04:52:12;7.32;;;5.28;;
15952;SDS011;8075;47.766;8.846;2022-11-20T04:54:38;5.35;;;4.82;;
15952;SDS011;8075;47.766;8.846;2022-11-20T04:57:04;5.60;;;5.10;;
15952;SDS011;8075;47.766;8.846;2022-11-20T04:59:30;5.40;;;4.90;;
15952;SDS011;8075;47.766;8.846;2022-11-20T05:01:56;5.10;;;4.70;;
15952;SDS011;8075;47.766;8.846;2022-11-20T05:04:22;4.83;;;4.43;;
15952;SDS011;8075;47.766;8.846;2022-11-20T05:06:49;4.75;;;4.32;;
15952;SDS011;8075;47.766;8.846;2022-11-20T05:09:15;4.93;;;4.10;;
15952;SDS011;8075;47.766;8.846;2022-11-20T05:11:41;5.65;;;4.38;;
15952;SDS011;8075;47.766;8.846;2022-11-20T05:14:07;5.00;;;4.50;;
15952;SDS011;8075;47.766;8.846;2022-11-20T05:16:33;4.78;;;4.38;;
15952;SDS011;8075;47.766;8.846;2022-11-20T05:19:00;4.67;;;4.27;;
15952;SDS011;8075;47.766;8.846;2022-11-20T05:21:26;4.13;;;3.83;;
15952;SDS011;8075;47.766;8.846;2022-11-20T05:23:52;4.57;;;4.18;;
15952;SDS011;8075;47.766;8.846;2022-11-20T05:26:20;4.30;;;3.90;;
15952;SDS011;8075;47.766;8.846;2022-11-20T05:28:46;4.80;;;4.13;;
15952;SDS011;8075;47.766;8.846;2022-11-20T05:31:16;4.97;;;4.03;;
15952;SDS011;8075;47.766;8.846;2022-11-20T05:33:43;4.65;;;4.25;;
15952;SDS011;8075;47.766;8.846;2022-11-20T05:36:10;4.25;;;3.90;;
15952;SDS011;8075;47.766;8.846;2022-11-20T05:38:36;3.97;;;3.67;;
15952;SDS011;8075;47.766;8.846;2022-11-20T05:41:12;4.10;;;3.72;;
15952;SDS011;8075;47.766;8.846;2022-11-20T05:43:39;4.53;;;3.78;;
15952;SDS011;8075;47.766;8.846;2022-11-20T05:46:05;4.18;;;3.78;;
15952;SDS011;8075;47.766;8.846;2022-11-20T05:48:32;5.47;;;4.07;;
15952;SDS011;8075;47.766;8.846;2022-11-20T05:50:59;4.47;;;4.07;;
15952;SDS011;8075;47.766;8.846;2022-11-20T05:53:25;5.70;;;4.82;;
15952;SDS011;8075;47.766;8.846;2022-11-20T05:55:58;4.55;;;4.15;;
15952;SDS011;8075;47.766;8.846;2022-11-20T05:58:24;5.28;;;4.35;;
15952;SDS011;8075;47.766;8.846;2022-11-20T06:00:50;4.18;;;3.78;;
15952;SDS011;8075;47.766;8.846;2022-11-20T06:03:16;3.92;;;3.63;;
15952;SDS011;8075;47.766;8.846;2022-11-20T06:05:42;4.82;;;4.07;;
15952;SDS011;8075;47.766;8.846;2022-11-20T06:08:08;4.80;;;4.40;;
15952;SDS011;8075;47.766;8.846;2022-11-20T06:10:34;4.85;;;4.45;;
15952;SDS011;8075;47.766;8.846;2022-11-20T06:13:00;5.28;;;4.75;;
15952;SDS011;8075;47.766;8.846;2022-11-20T06:15:26;5.53;;;4.50;;
15952;SDS011;8075;47.766;8.846;2022-11-20T06:17:52;5.03;;;4.50;;
15952;SDS011;8075;47.766;8.846;2022-11-20T06:20:19;5.47;;;4.53;;
15952;SDS011;8075;47.766;8.846;2022-11-20T06:22:45;5.88;;;4.22;;
15952;SDS011;8075;47.766;8.846;2022-11-20T06:25:11;4.43;;;4.03;;
15952;SDS011;8075;47.766;8.846;2022-11-20T06:27:37;4.95;;;4.55;;
15952;SDS011;8075;47.766;8.846;2022-11-20T06:30:03;5.00;;;4.38;;
15952;SDS011;8075;47.766;8.846;2022-11-20T06:32:29;5.10;;;4.30;;
15952;SDS011;8075;47.766;8.846;2022-11-20T06:34:55;7.25;;;4.55;;
15952;SDS011;8075;47.766;8.846;2022-11-20T06:37:21;7.75;;;4.60;;
15952;SDS011;8075;47.766;8.846;2022-11-20T06:39:47;4.40;;;4.00;;
15952;SDS011;8075;47.766;8.846;2022-11-20T06:42:13;8.27;;;5.90;;
15952;SDS011;8075;47.766;8.846;2022-11-20T06:44:39;9.32;;;6.10;;
15952;SDS011;8075;47.766;8.846;2022-11-20T06:47:05;7.25;;;6.03;;
15952;SDS011;8075;47.766;8.846;2022-11-20T06:49:31;7.13;;;6.47;;
15952;SDS011;8075;47.766;8.846;2022-11-20T06:51:59;4.22;;;3.83;;
15952;SDS011;8075;47.766;8.846;2022-11-20T06:54:25;3.83;;;3.45;;
15952;SDS011;8075;47.766;8.846;2022-11-20T06:56:51;3.30;;;3.00;;
15952;SDS011;8075;47.766;8.846;2022-11-20T06:59:17;3.30;;;3.10;;
15952;SDS011;8075;47.766;8.846;2022-11-20T07:01:43;3.38;;;2.55;;
15952;SDS011;8075;47.766;8.846;2022-11-20T07:04:08;2.97;;;2.67;;
15952;SDS011;8075;47.766;8.846;2022-11-20T07:06:34;2.88;;;2.30;;
15952;SDS011;8075;47.766;8.846;2022-11-20T07:09:01;2.70;;;2.50;;
15952;SDS011;8075;47.766;8.846;2022-11-20T07:11:27;2.97;;;2.67;;
15952;SDS011;8075;47.766;8.846;2022-11-20T07:13:53;2.80;;;2.30;;
15952;SDS011;8075;47.766;8.846;2022-11-20T07:16:19;2.72;;;2.10;;
15952;SDS011;8075;47.766;8.846;2022-11-20T07:18:45;2.47;;;2.10;;
15952;SDS011;8075;47.766;8.846;2022-11-20T07:21:11;2.72;;;2.45;;
15952;SDS011;8075;47.766;8.846;2022-11-20T07:23:37;3.27;;;2.90;;
15952;SDS011;8075;47.766;8.846;2022-11-20T07:26:04;4.13;;;3.72;;
15952;SDS011;8075;47.766;8.846;2022-11-20T07:28:30;3.30;;;3.00;;
15952;SDS011;8075;47.766;8.846;2022-11-20T07:30:56;3.70;;;2.90;;
15952;SDS011;8075;47.766;8.846;2022-11-20T07:33:22;3.20;;;2.90;;
15952;SDS011;8075;47.766;8.846;2022-11-20T07:35:48;4.97;;;4.47;;
15952;SDS011;8075;47.766;8.846;2022-11-20T07:38:14;4.07;;;2.78;;
15952;SDS011;8075;47.766;8.846;2022-11-20T07:40:40;2.63;;;2.30;;
15952;SDS011;8075;47.766;8.846;2022-11-20T07:43:06;2.30;;;2.10;;
15952;SDS011;8075;47.766;8.846;2022-11-20T07:45:32;3.58;;;2.30;;
15952;SDS011;8075;47.766;8.846;2022-11-20T07:47:58;2.50;;;2.30;;
15952;SDS011;8075;47.766;8.846;2022-11-20T07:50:24;2.00;;;1.80;;
15952;SDS011;8075;47.766;8.846;2022-11-20T07:52:50;2.00;;;1.80;;
15952;SDS011;8075;47.766;8.846;2022-11-20T07:55:17;2.30;;;1.80;;
15952;SDS011;8075;47.766;8.846;2022-11-20T07:57:43;2.25;;;1.90;;
15952;SDS011;8075;47.766;8.846;2022-11-20T08:00:10;2.10;;;1.90;;
15952;SDS011;8075;47.766;8.846;2022-11-20T08:02:37;2.85;;;2.55;;
15952;SDS011;8075;47.766;8.846;2022-11-20T08:05:04;2.05;;;1.92;;
15952;SDS011;8075;47.766;8.846;2022-11-20T08:07:34;2.08;;;1.90;;
15952;SDS011;8075;47.766;8.846;2022-11-20T08:10:00;1.90;;;1.80;;
15952;SDS011;8075;47.766;8.846;2022-11-20T08:12:26;2.15;;;1.98;;
15952;SDS011;8075;47.766;8.846;2022-11-20T08:15:11;2.50;;;2.00;;
15952;SDS011;8075;47.766;8.846;2022-11-20T08:17:37;2.00;;;1.67;;
15952;SDS011;8075;47.766;8.846;2022-11-20T08:20:03;2.00;;;1.80;;
15952;SDS011;8075;47.766;8.846;2022-11-20T08:22:29;2.10;;;1.75;;
15952;SDS011;8075;47.766;8.846;2022-11-20T08:24:55;1.70;;;1.60;;
15952;SDS011;8075;47.766;8.846;2022-11-20T08:27:21;1.90;;;1.70;;
15952;SDS011;8075;47.766;8.846;2022-11-20T08:29:47;1.70;;;1.60;;
15952;SDS011;8075;47.766;8.846;2022-11-20T08:32:13;2.00;;;1.77;;
15952;SDS011;8075;47.766;8.846;2022-11-20T08:34:39;1.90;;;1.70;;
15952;SDS011;8075;47.766;8.846;2022-11-20T08:37:05;2.05;;;1.70;;
15952;SDS011;8075;47.766;8.846;2022-11-20T08:39:31;2.33;;;1.87;;
15952;SDS011;8075;47.766;8.846;2022-11-20T08:41:57;2.72;;;1.83;;
15952;SDS011;8075;47.766;8.846;2022-11-20T08:44:23;1.53;;;1.43;;
15952;SDS011;8075;47.766;8.846;2022-11-20T08:46:49;1.45;;;1.30;;
15952;SDS011;8075;47.766;8.846;2022-11-20T08:49:15;1.58;;;1.40;;
15952;SDS011;8075;47.766;8.846;2022-11-20T08:51:42;1.90;;;1.42;;
15952;SDS011;8075;47.766;8.846;2022-11-20T08:54:08;3.05;;;1.52;;
15952;SDS011;8075;47.766;8.846;2022-11-20T08:56:34;2.30;;;1.65;;
15952;SDS011;8075;47.766;8.846;2022-11-20T08:59:01;1.92;;;1.60;;
15952;SDS011;8075;47.766;8.846;2022-11-20T09:01:27;2.00;;;1.80;;
15952;SDS011;8075;47.766;8.846;2022-11-20T09:03:57;1.90;;;1.80;;
15952;SDS011;8075;47.766;8.846;2022-11-20T09:06:24;2.57;;;2.33;;
15952;SDS011;8075;47.766;8.846;2022-11-20T09:08:54;3.00;;;2.70;;
15952;SDS011;8075;47.766;8.846;2022-11-20T09:11:20;2.95;;;2.03;;
15952;SDS011;8075;47.766;8.846;2022-11-20T09:13:46;3.08;;;2.22;;
15952;SDS011;8075;47.766;8.846;2022-11-20T09:16:12;2.20;;;2.00;;
15952;SDS011;8075;47.766;8.846;2022-11-20T09:18:38;3.10;;;2.60;;
15952;SDS011;8075;47.766;8.846;2022-11-20T09:21:05;2.42;;;2.10;;
15952;SDS011;8075;47.766;8.846;2022-11-20T09:23:32;2.25;;;1.90;;
15952;SDS011;8075;47.766;8.846;2022-11-20T09:26:01;2.13;;;1.98;;
15952;SDS011;8075;47.766;8.846;2022-11-20T09:28:27;3.30;;;2.35;;
15952;SDS011;8075;47.766;8.846;2022-11-20T09:30:53;2.55;;;2.35;;
15952;SDS011;8075;47.766;8.846;2022-11-20T09:33:19;3.03;;;2.63;;
15952;SDS011;8075;47.766;8.846;2022-11-20T09:35:45;4.95;;;3.25;;
15952;SDS011;8075;47.766;8.846;2022-11-20T09:38:11;4.93;;;3.37;;
15952;SDS011;8075;47.766;8.846;2022-11-20T09:41:02;3.80;;;3.40;;
15952;SDS011;8075;47.766;8.846;2022-11-20T09:46:14;2.72;;;2.53;;
15952;SDS011;8075;47.766;8.846;2022-11-20T09:54:14;4.43;;;4.03;;
15952;SDS011;8075;47.766;8.846;2022-11-20T09:56:42;3.40;;;2.63;;
15952;SDS011;8075;47.766;8.846;2022-11-20T09:59:14;2.10;;;1.92;;
15952;SDS011;8075;47.766;8.846;2022-11-20T10:01:44;3.00;;;2.58;;
15952;SDS011;8075;47.766;8.846;2022-11-20T10:04:17;3.10;;;1.70;;
15952;SDS011;8075;47.766;8.846;2022-11-20T10:06:46;3.45;;;2.75;;
15952;SDS011;8075;47.766;8.846;2022-11-20T10:09:18;4.47;;;3.27;;
15952;SDS011;8075;47.766;8.846;2022-11-20T10:16:42;2.60;;;2.40;;
15952;SDS011;8075;47.766;8.846;2022-11-20T10:21:51;2.20;;;2.00;;
15952;SDS011;8075;47.766;8.846;2022-11-20T10:29:35;2.30;;;2.10;;
15952;SDS011;8075;47.766;8.846;2022-11-20T10:32:03;3.07;;;1.90;;
15952;SDS011;8075;47.766;8.846;2022-11-20T10:34:34;3.13;;;1.60;;
15952;SDS011;8075;47.766;8.846;2022-11-20T10:37:02;1.80;;;1.58;;
15952;SDS011;8075;47.766;8.846;2022-11-20T10:42:00;2.47;;;1.98;;
15952;SDS011;8075;47.766;8.846;2022-11-20T10:44:27;3.53;;;2.00;;
15952;SDS011;8075;47.766;8.846;2022-11-20T10:47:16;2.30;;;2.05;;
15952;SDS011;8075;47.766;8.846;2022-11-20T10:49:46;2.55;;;2.15;;
15952;SDS011;8075;47.766;8.846;2022-11-20T10:54:43;2.00;;;1.83;;
15952;SDS011;8075;47.766;8.846;2022-11-20T10:57:21;3.90;;;2.30;;
15952;SDS011;8075;47.766;8.846;2022-11-20T11:02:20;1.73;;;1.48;;
15952;SDS011;8075;47.766;8.846;2022-11-20T11:04:47;1.65;;;1.33;;
15952;SDS011;8075;47.766;8.846;2022-11-20T11:10:18;1.20;;;1.10;;
15952;SDS011;8075;47.766;8.846;2022-11-20T11:12:45;2.73;;;1.00;;
15952;SDS011;8075;47.766;8.846;2022-11-20T11:15:14;2.30;;;1.40;;
15952;SDS011;8075;47.766;8.846;2022-11-20T11:17:46;2.60;;;1.90;;
15952;SDS011;8075;47.766;8.846;2022-11-20T11:20:19;1.50;;;1.40;;
15952;SDS011;8075;47.766;8.846;2022-11-20T11:22:46;1.73;;;1.10;;
15952;SDS011;8075;47.766;8.846;2022-11-20T11:25:20;1.38;;;1.27;;
15952;SDS011;8075;47.766;8.846;2022-11-20T11:27:47;1.50;;;1.30;;
15952;SDS011;8075;47.766;8.846;2022-11-20T11:30:16;1.80;;;1.00;;
15952;SDS011;8075;47.766;8.846;2022-11-20T11:32:43;1.33;;;1.00;;
15952;SDS011;8075;47.766;8.846;2022-11-20T11:37:45;1.13;;;0.90;;
15952;SDS011;8075;47.766;8.846;2022-11-20T11:40:12;1.30;;;1.20;;
15952;SDS011;8075;47.766;8.846;2022-11-20T11:42:50;3.20;;;1.83;;
15952;SDS011;8075;47.766;8.846;2022-11-20T11:45:18;2.37;;;1.50;;
15952;SDS011;8075;47.766;8.846;2022-11-20T11:47:47;1.40;;;1.30;;
15952;SDS011;8075;47.766;8.846;2022-11-20T11:50:15;1.73;;;1.20;;
15952;SDS011;8075;47.766;8.846;2022-11-20T11:55:31;2.53;;;1.30;;
15952;SDS011;8075;47.766;8.846;2022-11-20T11:58:06;1.77;;;1.30;;
15952;SDS011;8075;47.766;8.846;2022-11-20T12:00:35;1.83;;;1.42;;
15952;SDS011;8075;47.766;8.846;2022-11-20T12:03:06;2.30;;;1.40;;
15952;SDS011;8075;47.766;8.846;2022-11-20T12:05:44;1.65;;;1.30;;
15952;SDS011;8075;47.766;8.846;2022-11-20T12:08:31;2.22;;;1.63;;
15952;SDS011;8075;47.766;8.846;2022-11-20T12:11:00;2.60;;;1.45;;
15952;SDS011;8075;47.766;8.846;2022-11-20T12:16:08;2.17;;;1.35;;
15952;SDS011;8075;47.766;8.846;2022-11-20T12:18:35;3.13;;;1.50;;
15952;SDS011;8075;47.766;8.846;2022-11-20T12:29:24;2.00;;;1.40;;
15952;SDS011;8075;47.766;8.846;2022-11-20T12:50:48;2.10;;;1.35;;
15952;SDS011;8075;47.766;8.846;2022-11-20T12:58:39;2.45;;;1.33;;
15952;SDS011;8075;47.766;8.846;2022-11-20T13:06:53;2.15;;;1.38;;
15952;SDS011;8075;47.766;8.846;2022-11-20T13:09:20;2.20;;;1.40;;
15952;SDS011;8075;47.766;8.846;2022-11-20T13:11:50;2.90;;;1.50;;
15952;SDS011;8075;47.766;8.846;2022-11-20T13:19:16;1.73;;;1.10;;
15952;SDS011;8075;47.766;8.846;2022-11-20T13:21:43;1.60;;;1.10;;
15952;SDS011;8075;47.766;8.846;2022-11-20T13:29:34;1.90;;;1.10;;
15952;SDS011;8075;47.766;8.846;2022-11-20T13:32:12;1.80;;;1.08;;
15952;SDS011;8075;47.766;8.846;2022-11-20T13:34:39;1.30;;;1.10;;
15952;SDS011;8075;47.766;8.846;2022-11-20T13:37:05;2.37;;;1.30;;
15952;SDS011;8075;47.766;8.846;2022-11-20T13:39:32;1.45;;;1.17;;
15952;SDS011;8075;47.766;8.846;2022-11-20T13:42:02;2.58;;;1.70;;
15952;SDS011;8075;47.766;8.846;2022-11-20T13:44:30;3.38;;;2.00;;
15952;SDS011;8075;47.766;8.846;2022-11-20T13:47:00;2.10;;;1.88;;
15952;SDS011;8075;47.766;8.846;2022-11-20T13:49:33;1.97;;;1.77;;
15952;SDS011;8075;47.766;8.846;2022-11-20T13:52:07;2.08;;;1.30;;
15952;SDS011;8075;47.766;8.846;2022-11-20T14:01:58;3.55;;;1.70;;
15952;SDS011;8075;47.766;8.846;2022-11-20T14:04:29;2.77;;;1.90;;
15952;SDS011;8075;47.766;8.846;2022-11-20T14:06:56;2.55;;;1.85;;
15952;SDS011;8075;47.766;8.846;2022-11-20T14:09:26;3.08;;;2.08;;
15952;SDS011;8075;47.766;8.846;2022-11-20T14:11:53;1.90;;;1.30;;
15952;SDS011;8075;47.766;8.846;2022-11-20T14:14:20;1.20;;;1.10;;
15952;SDS011;8075;47.766;8.846;2022-11-20T14:16:46;1.02;;;0.80;;
15952;SDS011;8075;47.766;8.846;2022-11-20T14:22:27;1.92;;;1.20;;
15952;SDS011;8075;47.766;8.846;2022-11-20T14:24:34;4.07;;;3.10;;
15952;SDS011;8075;47.766;8.846;2022-11-20T14:27:00;4.05;;;2.28;;
15952;SDS011;8075;47.766;8.846;2022-11-20T14:29:29;2.57;;;1.70;;
15952;SDS011;8075;47.766;8.846;2022-11-20T14:31:59;2.60;;;1.80;;
15952;SDS011;8075;47.766;8.846;2022-11-20T14:34:25;1.63;;;1.23;;
15952;SDS011;8075;47.766;8.846;2022-11-20T14:36:54;2.55;;;1.40;;
15952;SDS011;8075;47.766;8.846;2022-11-20T14:39:21;2.67;;;1.08;;
15952;SDS011;8075;47.766;8.846;2022-11-20T14:41:51;1.73;;;1.40;;
15952;SDS011;8075;47.766;8.846;2022-11-20T14:44:19;2.17;;;1.60;;
15952;SDS011;8075;47.766;8.846;2022-11-20T14:46:46;1.88;;;1.20;;
15952;SDS011;8075;47.766;8.846;2022-11-20T14:49:12;1.67;;;1.25;;
15952;SDS011;8075;47.766;8.846;2022-11-20T14:51:39;2.83;;;1.42;;
15952;SDS011;8075;47.766;8.846;2022-11-20T14:54:16;2.97;;;1.70;;
15952;SDS011;8075;47.766;8.846;2022-11-20T14:56:55;1.90;;;1.48;;
15952;SDS011;8075;47.766;8.846;2022-11-20T14:59:22;2.47;;;1.88;;
15952;SDS011;8075;47.766;8.846;2022-11-20T15:02:22;1.98;;;1.40;;
15952;SDS011;8075;47.766;8.846;2022-11-20T15:04:56;2.65;;;2.13;;
15952;SDS011;8075;47.766;8.846;2022-11-20T15:07:23;2.42;;;2.15;;
15952;SDS011;8075;47.766;8.846;2022-11-20T15:09:59;1.83;;;1.33;;
15952;SDS011;8075;47.766;8.846;2022-11-20T15:12:25;1.93;;;1.70;;
15952;SDS011;8075;47.766;8.846;2022-11-20T15:14:51;3.50;;;1.70;;
15952;SDS011;8075;47.766;8.846;2022-11-20T15:17:17;2.80;;;2.13;;
15952;SDS011;8075;47.766;8.846;2022-11-20T15:19:43;2.90;;;2.08;;
15952;SDS011;8075;47.766;8.846;2022-11-20T15:22:09;3.72;;;2.00;;
15952;SDS011;8075;47.766;8.846;2022-11-20T15:24:43;3.42;;;1.98;;
15952;SDS011;8075;47.766;8.846;2022-11-20T15:27:10;4.53;;;2.25;;
15952;SDS011;8075;47.766;8.846;2022-11-20T15:29:37;3.75;;;2.83;;
15952;SDS011;8075;47.766;8.846;2022-11-20T15:32:03;4.07;;;1.80;;
15952;SDS011;8075;47.766;8.846;2022-11-20T15:34:29;3.40;;;2.20;;
15952;SDS011;8075;47.766;8.846;2022-11-20T15:36:55;3.20;;;2.27;;
15952;SDS011;8075;47.766;8.846;2022-11-20T15:39:21;2.55;;;2.10;;
15952;SDS011;8075;47.766;8.846;2022-11-20T15:41:47;2.85;;;2.20;;
15952;SDS011;8075;47.766;8.846;2022-11-20T15:44:13;2.85;;;2.25;;
15952;SDS011;8075;47.766;8.846;2022-11-20T15:46:39;3.00;;;2.30;;
15952;SDS011;8075;47.766;8.846;2022-11-20T15:49:11;2.63;;;1.67;;
15952;SDS011;8075;47.766;8.846;2022-11-20T15:51:38;2.88;;;2.30;;
15952;SDS011;8075;47.766;8.846;2022-11-20T15:54:12;1.95;;;1.75;;
15952;SDS011;8075;47.766;8.846;2022-11-20T15:56:38;2.77;;;1.53;;
15952;SDS011;8075;47.766;8.846;2022-11-20T15:59:04;2.00;;;1.30;;
15952;SDS011;8075;47.766;8.846;2022-11-20T16:01:30;1.20;;;1.10;;
15952;SDS011;8075;47.766;8.846;2022-11-20T16:03:56;1.52;;;1.33;;
15952;SDS011;8075;47.766;8.846;2022-11-20T16:06:22;2.08;;;1.45;;
15952;SDS011;8075;47.766;8.846;2022-11-20T16:08:48;2.20;;;1.30;;
15952;SDS011;8075;47.766;8.846;2022-11-20T16:11:15;3.67;;;2.30;;
15952;SDS011;8075;47.766;8.846;2022-11-20T16:13:41;4.75;;;2.80;;
15952;SDS011;8075;47.766;8.846;2022-11-20T16:16:30;3.07;;;2.43;;
15952;SDS011;8075;47.766;8.846;2022-11-20T16:18:58;3.00;;;2.40;;
15952;SDS011;8075;47.766;8.846;2022-11-20T16:21:25;9.68;;;7.75;;
15952;SDS011;8075;47.766;8.846;2022-11-20T16:24:00;4.10;;;3.30;;
15952;SDS011;8075;47.766;8.846;2022-11-20T16:26:26;5.28;;;4.63;;
15952;SDS011;8075;47.766;8.846;2022-11-20T16:28:53;8.65;;;7.10;;
15952;SDS011;8075;47.766;8.846;2022-11-20T16:31:19;7.97;;;7.00;;
15952;SDS011;8075;47.766;8.846;2022-11-20T16:33:49;6.85;;;6.05;;
15952;SDS011;8075;47.766;8.846;2022-11-20T16:36:17;7.38;;;6.13;;
15952;SDS011;8075;47.766;8.846;2022-11-20T16:38:44;6.65;;;5.35;;
15952;SDS011;8075;47.766;8.846;2022-11-20T16:41:09;4.15;;;3.40;;
15952;SDS011;8075;47.766;8.846;2022-11-20T16:44:00;3.80;;;3.30;;
15952;SDS011;8075;47.766;8.846;2022-11-20T16:46:29;3.53;;;2.63;;
15952;SDS011;8075;47.766;8.846;2022-11-20T16:49:02;2.60;;;2.30;;